Time,TemperatureF,DewpointF,PressureIn,WindDirection,WindDirectionDegrees,WindSpeedMPH,WindSpeedGustMPH,Humidity,HourlyPrecipIn,Conditions,Clouds,dailyrainin,SolarRadiationWatts/m^2,SoftwareType,DateUTC
2013-05-13 00:04:00,50.2,45.9,29.92,North,0,6.0,10.0,85,0.00,,---,0.00,0.00,VWS V14.01,2013-05-13 05:04:00,
2013-05-13 00:09:00,50.1,45.8,29.92,NNW,336,9.0,11.0,85,0.00,,---,0.00,0.00,VWS V14.01,2013-05-13 05:09:00,
2013-05-13 00:14:00,50.1,45.8,29.92,ESE,114,8.0,12.0,85,0.00,,---,0.00,0.00,VWS V14.01,2013-05-13 05:14:00,
2013-05-13 00:19:00,49.9,45.6,29.91,WNW,294,9.0,12.0,85,0.00,,---,0.00,0.00,VWS V14.01,2013-05-13 05:19:00,
2013-05-13 00:25:00,49.9,45.9,29.91,WSW,248,10.0,12.0,86,0.00,,---,0.00,0.00,VWS V14.01,2013-05-13 05:25:00,
2013-05-13 00:30:00,49.8,45.8,29.91,North,359,9.0,12.0,86,0.00,,---,0.00,0.00,VWS V14.01,2013-05-13 05:30:00,
2013-05-13 00:35:00,49.8,45.8,29.91,SSE,162,7.0,10.0,86,0.00,,---,0.00,0.00,VWS V14.01,2013-05-13 05:35:00,
2013-05-13 00:40:00,49.6,45.6,29.91,SSE,152,8.0,9.0,86,0.00,,---,0.00,0.00,VWS V14.01,2013-05-13 05:40:00,
2013-05-13 00:45:00,49.5,45.5,29.91,WSW,257,7.0,8.0,86,0.00,,---,0.00,0.00,VWS V14.01,2013-05-13 05:45:00,
2013-05-13 00:50:00,49.5,45.5,29.91,SSW,206,7.0,11.0,86,0.00,,---,0.00,0.00,VWS V14.01,2013-05-13 05:50:00,
2013-05-13 00:55:00,49.5,45.5,29.91,North,356,9.0,11.0,86,0.00,,---,0.00,0.00,VWS V14.01,2013-05-13 05:55:00,
2013-05-13 01:00:00,49.5,45.5,29.91,NNW,344,12.0,12.0,86,0.00,,---,0.00,0.00,VWS V14.01,2013-05-13 06:00:00,
2013-05-13 01:05:00,49.4,45.4,29.91,SSE,148,10.0,12.0,86,0.00,,---,0.00,0.00,VWS V14.01,2013-05-13 06:05:00,
2013-05-13 01:10:00,49.4,45.4,29.91,NNW,339,11.0,12.0,86,0.00,,---,0.00,0.00,VWS V14.01,2013-05-13 06:10:00,
2013-05-13 01:15:00,49.4,45.4,29.89,North,350,10.0,14.0,86,0.00,,---,0.00,0.00,VWS V14.01,2013-05-13 06:15:00,
2013-05-13 01:20:00,49.5,45.5,29.89,North,0,11.0,13.0,86,0.00,,---,0.00,0.00,VWS V14.01,2013-05-13 06:20:00,
2013-05-13 01:25:00,49.4,45.1,29.89,SSE,164,10.0,13.0,85,0.00,,---,0.00,0.00,VWS V14.01,2013-05-13 06:25:00,
2013-05-13 01:30:00,49.4,45.1,29.89,North,0,11.0,13.0,85,0.00,,---,0.00,0.00,VWS V14.01,2013-05-13 06:30:00,
2013-05-13 01:35:00,49.4,45.1,29.89,NNW,340,11.0,11.0,85,0.00,,---,0.00,0.00,VWS V14.01,2013-05-13 06:35:00,
2013-05-13 01:40:00,49.4,45.1,29.89,South,181,8.0,8.0,85,0.00,,---,0.00,0.00,VWS V14.01,2013-05-13 06:40:00,
2013-05-13 01:46:00,49.2,44.9,29.89,NW,305,8.0,11.0,85,0.00,,---,0.00,0.00,VWS V14.01,2013-05-13 06:46:00,
2013-05-13 01:51:00,49.1,45.1,29.89,North,352,10.0,11.0,86,0.00,,---,0.00,0.00,VWS V14.01,2013-05-13 06:51:00,
2013-05-13 01:56:00,49.1,44.8,29.89,SSW,212,10.0,10.0,85,0.00,,---,0.00,0.00,VWS V14.01,2013-05-13 06:56:00,
2013-05-13 02:01:00,48.9,44.6,29.88,SE,133,9.0,12.0,85,0.00,,---,0.00,0.00,VWS V14.01,2013-05-13 07:01:00,
2013-05-13 02:06:00,48.8,44.8,29.88,NNW,340,10.0,10.0,86,0.00,,---,0.00,0.00,VWS V14.01,2013-05-13 07:06:00,
2013-05-13 02:11:00,48.8,44.5,29.88,North,0,11.0,11.0,85,0.00,,---,0.00,0.00,VWS V14.01,2013-05-13 07:11:00,
2013-05-13 02:16:00,48.8,44.5,29.87,SSW,193,8.0,11.0,85,0.00,,---,0.00,0.00,VWS V14.01,2013-05-13 07:16:00,
2013-05-13 02:21:00,48.6,44.3,29.87,WSW,254,11.0,12.0,85,0.00,,---,0.00,0.00,VWS V14.01,2013-05-13 07:21:00,
2013-05-13 02:26:00,48.5,44.5,29.87,North,0,7.0,12.0,86,0.00,,---,0.00,0.00,VWS V14.01,2013-05-13 07:26:00,
2013-05-13 02:31:00,48.3,44.3,29.87,NW,315,11.0,11.0,86,0.00,,---,0.00,0.00,VWS V14.01,2013-05-13 07:31:00,
2013-05-13 02:36:00,48.0,44.0,29.87,North,357,11.0,12.0,86,0.00,,---,0.00,0.00,VWS V14.01,2013-05-13 07:36:00,
2013-05-13 02:41:00,48.0,44.3,29.87,SSE,147,13.0,13.0,87,0.00,,---,0.00,0.00,VWS V14.01,2013-05-13 07:41:00,
2013-05-13 02:46:00,48.2,44.5,29.86,NNW,333,10.0,13.0,87,0.00,,---,0.00,0.00,VWS V14.01,2013-05-13 07:46:00,
2013-05-13 02:51:00,48.2,44.5,29.86,ESE,123,8.0,11.0,87,0.00,,---,0.00,0.00,VWS V14.01,2013-05-13 07:51:00,
2013-05-13 02:56:00,48.3,44.6,29.86,North,0,9.0,11.0,87,0.00,,---,0.00,0.00,VWS V14.01,2013-05-13 07:56:00,
2013-05-13 03:02:00,48.2,44.5,29.86,SSE,167,7.0,12.0,87,0.00,,---,0.00,0.00,VWS V14.01,2013-05-13 08:02:00,
2013-05-13 03:07:00,48.2,44.2,29.86,SE,143,5.0,7.0,86,0.00,,---,0.00,0.00,VWS V14.01,2013-05-13 08:07:00,
2013-05-13 03:12:00,48.0,44.0,29.86,ESE,121,3.0,6.0,86,0.00,,---,0.00,0.00,VWS V14.01,2013-05-13 08:12:00,
2013-05-13 03:17:00,48.0,44.0,29.86,WNW,282,6.0,6.0,86,0.00,,---,0.00,0.00,VWS V14.01,2013-05-13 08:17:00,
2013-05-13 03:22:00,47.9,43.9,29.86,SE,133,4.0,4.0,86,0.00,,---,0.00,0.00,VWS V14.01,2013-05-13 08:22:00,
2013-05-13 03:27:00,47.9,43.9,29.86,North,349,3.0,7.0,86,0.00,,---,0.00,0.00,VWS V14.01,2013-05-13 08:27:00,
2013-05-13 03:32:00,47.7,43.7,29.85,SSE,151,3.0,6.0,86,0.00,,---,0.00,0.00,VWS V14.01,2013-05-13 08:32:00,
2013-05-13 03:37:00,47.6,43.6,29.85,SE,144,3.0,6.0,86,0.00,,---,0.00,0.00,VWS V14.01,2013-05-13 08:37:00,
2013-05-13 03:42:00,47.6,43.9,29.85,SW,217,5.0,6.0,87,0.00,,---,0.00,0.00,VWS V14.01,2013-05-13 08:42:00,
2013-05-13 03:47:00,47.4,43.7,29.85,NW,305,5.0,6.0,87,0.00,,---,0.00,0.00,VWS V14.01,2013-05-13 08:47:00,
2013-05-13 03:52:00,47.4,43.7,29.85,North,357,3.0,5.0,87,0.00,,---,0.00,0.00,VWS V14.01,2013-05-13 08:52:00,
2013-05-13 03:57:00,47.4,43.7,29.85,NW,304,6.0,6.0,87,0.00,,---,0.00,0.00,VWS V14.01,2013-05-13 08:57:00,
2013-05-13 04:02:00,47.4,43.4,29.85,North,356,4.0,6.0,86,0.00,,---,0.00,0.00,VWS V14.01,2013-05-13 09:02:00,
2013-05-13 04:07:00,47.3,43.3,29.85,North,0,5.0,6.0,86,0.00,,---,0.00,0.00,VWS V14.01,2013-05-13 09:07:00,
2013-05-13 04:13:00,47.1,43.1,29.85,SSW,206,2.0,3.0,86,0.00,,---,0.00,0.00,VWS V14.01,2013-05-13 09:13:00,
2013-05-13 04:18:00,47.0,43.0,29.86,WSW,251,2.0,2.0,86,0.00,,---,0.00,0.00,VWS V14.01,2013-05-13 09:18:00,
2013-05-13 04:23:00,47.1,43.1,29.86,NW,318,2.0,3.0,86,0.00,,---,0.00,0.00,VWS V14.01,2013-05-13 09:23:00,
2013-05-13 04:28:00,47.3,43.3,29.86,SE,127,2.0,6.0,86,0.00,,---,0.00,0.00,VWS V14.01,2013-05-13 09:28:00,
2013-05-13 04:33:00,47.3,43.3,29.86,SSE,164,3.0,4.0,86,0.00,,---,0.00,0.00,VWS V14.01,2013-05-13 09:33:00,
2013-05-13 04:38:00,47.4,43.1,29.86,NNW,339,5.0,5.0,85,0.00,,---,0.00,0.00,VWS V14.01,2013-05-13 09:38:00,
2013-05-13 04:43:00,47.4,43.1,29.86,SSW,209,2.0,3.0,85,0.00,,---,0.00,0.00,VWS V14.01,2013-05-13 09:43:00,
2013-05-13 04:48:00,46.8,42.5,29.86,South,176,1.0,2.0,85,0.00,,---,0.00,0.00,VWS V14.01,2013-05-13 09:48:00,
2013-05-13 04:53:00,46.5,42.5,29.86,North,349,3.0,3.0,86,0.00,,---,0.00,0.00,VWS V14.01,2013-05-13 09:53:00,
2013-05-13 04:58:00,46.5,42.5,29.86,West,268,1.0,3.0,86,0.00,,---,0.00,0.00,VWS V14.01,2013-05-13 09:58:00,
2013-05-13 05:03:00,46.0,42.0,29.86,West,268,0.0,0.0,86,0.00,,---,0.00,0.00,VWS V14.01,2013-05-13 10:03:00,
2013-05-13 05:08:00,45.4,41.5,29.86,WSW,257,0.0,0.0,86,0.00,,---,0.00,0.00,VWS V14.01,2013-05-13 10:08:00,
2013-05-13 05:13:00,45.2,41.6,29.86,WSW,256,0.0,0.0,87,0.00,,---,0.00,0.00,VWS V14.01,2013-05-13 10:13:00,
2013-05-13 05:18:00,44.9,41.3,29.86,SSW,205,0.0,0.0,87,0.00,,---,0.00,0.00,VWS V14.01,2013-05-13 10:18:00,
2013-05-13 05:23:00,44.6,41.3,29.86,NW,318,3.0,3.0,88,0.00,,---,0.00,0.00,VWS V14.01,2013-05-13 10:23:00,
2013-05-13 05:28:00,44.3,41.3,29.86,ESE,119,5.0,5.0,89,0.00,,---,0.00,0.00,VWS V14.01,2013-05-13 10:28:00,
2013-05-13 05:34:00,43.9,40.9,29.86,East,80,3.0,5.0,89,0.00,,---,0.00,0.00,VWS V14.01,2013-05-13 10:34:00,
2013-05-13 05:39:00,43.6,40.9,29.86,ENE,76,3.0,4.0,90,0.00,,---,0.00,0.00,VWS V14.01,2013-05-13 10:39:00,
2013-05-13 05:44:00,43.6,41.2,29.86,ENE,76,3.0,5.0,91,0.00,,---,0.00,0.00,VWS V14.01,2013-05-13 10:44:00,
2013-05-13 05:49:00,43.6,41.2,29.85,ENE,75,3.0,5.0,91,0.00,,---,0.00,0.00,VWS V14.01,2013-05-13 10:49:00,
2013-05-13 05:54:00,43.8,41.6,29.85,ENE,75,2.0,3.0,92,0.00,,---,0.00,0.00,VWS V14.01,2013-05-13 10:54:00,
2013-05-13 05:59:00,43.6,41.4,29.85,ENE,75,2.0,3.0,92,0.00,,---,0.00,0.00,VWS V14.01,2013-05-13 10:59:00,
2013-05-13 06:04:00,43.8,41.6,29.85,ENE,75,3.0,3.0,92,0.00,,---,0.00,0.00,VWS V14.01,2013-05-13 11:04:00,
2013-05-13 06:09:00,43.9,41.7,29.85,SSE,168,3.0,5.0,92,0.00,,---,0.00,0.00,VWS V14.01,2013-05-13 11:09:00,
2013-05-13 06:14:00,44.1,41.9,29.85,ENE,76,3.0,3.0,92,0.00,,---,0.00,0.00,VWS V14.01,2013-05-13 11:14:00,
2013-05-13 06:19:00,44.1,41.9,29.86,East,89,2.0,3.0,92,0.00,,---,0.00,0.00,VWS V14.01,2013-05-13 11:19:00,
2013-05-13 06:24:00,44.1,41.9,29.86,ENE,78,1.0,2.0,92,0.00,,---,0.00,0.00,VWS V14.01,2013-05-13 11:24:00,
2013-05-13 06:29:00,44.1,41.9,29.86,ENE,75,0.0,2.0,92,0.00,,---,0.00,5.00,VWS V14.01,2013-05-13 11:29:00,
2013-05-13 06:34:00,44.2,42.0,29.86,NE,51,0.0,0.0,92,0.00,,---,0.00,21.00,VWS V14.01,2013-05-13 11:34:00,
2013-05-13 06:39:00,44.2,42.3,29.86,East,89,0.0,0.0,93,0.00,,---,0.00,30.00,VWS V14.01,2013-05-13 11:39:00,
2013-05-13 06:44:00,44.3,42.4,29.86,ENE,71,0.0,0.0,93,0.00,,---,0.00,46.00,VWS V14.01,2013-05-13 11:44:00,
2013-05-13 06:49:00,44.6,42.4,29.86,SE,133,5.0,6.0,92,0.00,,---,0.00,55.00,VWS V14.01,2013-05-13 11:49:00,
2013-05-13 06:54:00,45.1,43.2,29.86,ESE,107,2.0,5.0,93,0.00,,---,0.00,79.00,VWS V14.01,2013-05-13 11:54:00,
2013-05-13 07:00:00,45.7,43.8,29.86,SW,227,2.0,8.0,93,0.00,,---,0.00,91.00,VWS V14.01,2013-05-13 12:00:00,
2013-05-13 07:05:00,46.2,44.0,29.86,SSE,150,3.0,8.0,92,0.00,,---,0.00,102.00,VWS V14.01,2013-05-13 12:05:00,
2013-05-13 07:10:00,47.0,44.2,29.86,North,354,3.0,6.0,90,0.00,,---,0.00,81.00,VWS V14.01,2013-05-13 12:10:00,
2013-05-13 07:15:00,47.3,44.2,29.86,NW,313,2.0,6.0,89,0.00,,---,0.00,99.00,VWS V14.01,2013-05-13 12:15:00,
2013-05-13 07:20:00,47.7,44.3,29.86,North,353,2.0,5.0,88,0.00,,---,0.00,116.00,VWS V14.01,2013-05-13 12:20:00,
2013-05-13 07:25:00,48.0,44.6,29.86,SE,137,3.0,5.0,88,0.00,,---,0.00,125.00,VWS V14.01,2013-05-13 12:25:00,
2013-05-13 07:30:00,48.2,44.5,29.87,NW,306,4.0,5.0,87,0.00,,---,0.00,143.00,VWS V14.01,2013-05-13 12:30:00,
2013-05-13 07:35:00,48.5,44.5,29.87,SE,124,4.0,5.0,86,0.00,,---,0.00,165.00,VWS V14.01,2013-05-13 12:35:00,
2013-05-13 07:40:00,48.6,44.6,29.87,ESE,109,1.0,5.0,86,0.00,,---,0.00,194.00,VWS V14.01,2013-05-13 12:40:00,
2013-05-13 07:45:00,49.1,44.8,29.87,NNW,336,0.0,3.0,85,0.00,,---,0.00,208.00,VWS V14.01,2013-05-13 12:45:00,
2013-05-13 07:50:00,49.2,44.6,29.87,SE,141,3.0,3.0,84,0.00,,---,0.00,223.00,VWS V14.01,2013-05-13 12:50:00,
2013-05-13 07:55:00,49.5,44.9,29.87,SSE,161,5.0,5.0,84,0.00,,---,0.00,241.00,VWS V14.01,2013-05-13 12:55:00,
2013-05-13 08:00:00,49.8,44.8,29.86,SW,216,3.0,6.0,83,0.00,,---,0.00,259.00,VWS V14.01,2013-05-13 13:00:00,
2013-05-13 08:05:00,49.9,44.6,29.86,SSE,147,3.0,3.0,82,0.00,,---,0.00,274.00,VWS V14.01,2013-05-13 13:05:00,
2013-05-13 08:11:00,50.2,44.9,29.86,SW,223,6.0,7.0,82,0.00,,---,0.00,283.00,VWS V14.01,2013-05-13 13:11:00,
2013-05-13 08:16:00,50.5,44.9,29.87,North,354,3.0,3.0,81,0.00,,---,0.00,301.00,VWS V14.01,2013-05-13 13:16:00,
2013-05-13 08:21:00,51.0,45.4,29.87,ESE,116,4.0,5.0,81,0.00,,---,0.00,306.00,VWS V14.01,2013-05-13 13:21:00,
2013-05-13 08:26:00,51.3,45.3,29.87,ESE,117,6.0,7.0,80,0.00,,---,0.00,331.00,VWS V14.01,2013-05-13 13:26:00,
2013-05-13 08:31:00,51.7,45.7,29.87,SSE,158,1.0,4.0,80,0.00,,---,0.00,352.00,VWS V14.01,2013-05-13 13:31:00,
2013-05-13 08:36:00,52.3,46.0,29.87,NNW,344,7.0,10.0,79,0.00,,---,0.00,370.00,VWS V14.01,2013-05-13 13:36:00,
2013-05-13 08:41:00,52.6,46.0,29.87,SSE,164,7.0,10.0,78,0.00,,---,0.00,389.00,VWS V14.01,2013-05-13 13:41:00,
2013-05-13 08:46:00,53.2,45.8,29.86,North,352,5.0,10.0,76,0.00,,---,0.00,410.00,VWS V14.01,2013-05-13 13:46:00,
2013-05-13 08:51:00,53.8,46.1,29.86,WSW,244,6.0,10.0,75,0.00,,---,0.00,426.00,VWS V14.01,2013-05-13 13:51:00,
2013-05-13 08:56:00,54.4,46.3,29.86,NNW,342,3.0,6.0,74,0.00,,---,0.00,443.00,VWS V14.01,2013-05-13 13:56:00,
2013-05-13 09:01:00,55.0,46.9,29.86,SW,233,2.0,7.0,74,0.00,,---,0.00,429.00,VWS V14.01,2013-05-13 14:01:00,
2013-05-13 09:06:00,55.6,46.7,29.86,NW,325,3.0,5.0,72,0.00,,---,0.00,468.00,VWS V14.01,2013-05-13 14:06:00,
2013-05-13 09:11:00,56.3,47.0,29.86,South,186,5.0,11.0,71,0.00,,---,0.00,482.00,VWS V14.01,2013-05-13 14:11:00,
2013-05-13 09:17:00,57.0,46.9,29.86,WSW,239,4.0,8.0,69,0.00,,---,0.00,503.00,VWS V14.01,2013-05-13 14:17:00,
2013-05-13 09:22:00,57.5,47.0,29.86,North,352,5.0,5.0,68,0.00,,---,0.00,517.00,VWS V14.01,2013-05-13 14:22:00,
2013-05-13 09:27:00,58.3,47.4,29.86,West,272,6.0,7.0,67,0.00,,---,0.00,538.00,VWS V14.01,2013-05-13 14:27:00,
2013-05-13 09:32:00,59.0,47.3,29.86,SSW,200,5.0,7.0,65,0.00,,---,0.00,540.00,VWS V14.01,2013-05-13 14:32:00,
2013-05-13 09:37:00,59.6,47.4,29.86,SSW,195,6.0,6.0,64,0.00,,---,0.00,551.00,VWS V14.01,2013-05-13 14:37:00,
2013-05-13 09:42:00,60.1,47.5,29.86,SSW,196,2.0,6.0,63,0.00,,---,0.00,602.00,VWS V14.01,2013-05-13 14:42:00,
2013-05-13 09:47:00,60.9,47.4,29.86,SSW,199,1.0,5.0,61,0.00,,---,0.00,586.00,VWS V14.01,2013-05-13 14:47:00,
2013-05-13 09:52:00,61.5,47.5,29.86,South,191,5.0,6.0,60,0.00,,---,0.00,596.00,VWS V14.01,2013-05-13 14:52:00,
2013-05-13 09:57:00,62.1,48.1,29.86,SW,215,3.0,3.0,60,0.00,,---,0.00,653.00,VWS V14.01,2013-05-13 14:57:00,
2013-05-13 10:02:00,62.9,48.4,29.85,SW,229,2.0,3.0,59,0.00,,---,0.00,658.00,VWS V14.01,2013-05-13 15:02:00,
2013-05-13 10:07:00,63.2,47.7,29.85,WNW,296,0.0,3.0,57,0.00,,---,0.00,670.00,VWS V14.01,2013-05-13 15:07:00,
2013-05-13 10:12:00,64.0,48.5,29.85,SW,220,0.0,0.0,57,0.00,,---,0.00,663.00,VWS V14.01,2013-05-13 15:12:00,
2013-05-13 10:17:00,65.0,48.9,29.86,SE,137,4.0,4.0,56,0.00,,---,0.00,681.00,VWS V14.01,2013-05-13 15:17:00,
2013-05-13 10:22:00,64.8,48.8,29.86,East,96,2.0,5.0,56,0.00,,---,0.00,672.00,VWS V14.01,2013-05-13 15:22:00,
2013-05-13 10:28:00,65.0,48.9,29.86,ESE,123,2.0,5.0,56,0.00,,---,0.00,700.00,VWS V14.01,2013-05-13 15:28:00,
2013-05-13 10:33:00,65.5,48.9,29.86,ESE,120,0.0,0.0,55,0.00,,---,0.00,723.00,VWS V14.01,2013-05-13 15:33:00,
2013-05-13 10:38:00,66.4,49.3,29.86,South,189,2.0,3.0,54,0.00,,---,0.00,735.00,VWS V14.01,2013-05-13 15:38:00,
2013-05-13 10:43:00,66.6,49.5,29.86,SW,236,4.0,5.0,54,0.00,,---,0.00,750.00,VWS V14.01,2013-05-13 15:43:00,
2013-05-13 10:48:00,66.1,50.0,29.85,East,86,3.0,8.0,56,0.00,,---,0.00,762.00,VWS V14.01,2013-05-13 15:48:00,
2013-05-13 10:53:00,66.4,49.3,29.85,East,88,0.0,5.0,54,0.00,,---,0.00,772.00,VWS V14.01,2013-05-13 15:53:00,
2013-05-13 10:58:00,66.9,49.2,29.85,ESE,123,1.0,6.0,53,0.00,,---,0.00,783.00,VWS V14.01,2013-05-13 15:58:00,
2013-05-13 11:03:00,67.3,50.1,29.85,ESE,110,1.0,5.0,54,0.00,,---,0.00,794.00,VWS V14.01,2013-05-13 16:03:00,
2013-05-13 11:08:00,67.9,50.7,29.85,ESE,113,1.0,3.0,54,0.00,,---,0.00,804.00,VWS V14.01,2013-05-13 16:08:00,
2013-05-13 11:13:00,68.6,50.8,29.85,SSW,196,3.0,7.0,53,0.00,,---,0.00,816.00,VWS V14.01,2013-05-13 16:13:00,
2013-05-13 11:18:00,68.8,51.0,29.85,WSW,244,5.0,7.0,53,0.00,,---,0.00,827.00,VWS V14.01,2013-05-13 16:18:00,
2013-05-13 11:23:00,68.9,50.6,29.85,South,182,7.0,7.0,52,0.00,,---,0.00,836.00,VWS V14.01,2013-05-13 16:23:00,
2013-05-13 11:28:00,69.3,50.4,29.85,SSE,147,3.0,5.0,51,0.00,,---,0.00,836.00,VWS V14.01,2013-05-13 16:28:00,
2013-05-13 11:34:00,69.6,49.6,29.85,North,359,4.0,7.0,49,0.00,,---,0.00,855.00,VWS V14.01,2013-05-13 16:34:00,
2013-05-13 11:39:00,70.1,50.1,29.85,WSW,246,7.0,8.0,49,0.00,,---,0.00,864.00,VWS V14.01,2013-05-13 16:39:00,
2013-05-13 11:44:00,70.8,50.7,29.85,West,261,8.0,10.0,49,0.00,,---,0.00,867.00,VWS V14.01,2013-05-13 16:44:00,
2013-05-13 11:49:00,70.8,50.7,29.85,WSW,241,5.0,8.0,49,0.00,,---,0.00,882.00,VWS V14.01,2013-05-13 16:49:00,
2013-05-13 11:54:00,70.9,50.8,29.85,SSW,210,6.0,12.0,49,0.00,,---,0.00,890.00,VWS V14.01,2013-05-13 16:54:00,
2013-05-13 11:59:00,71.1,51.5,29.85,WNW,299,2.0,8.0,50,0.00,,---,0.00,897.00,VWS V14.01,2013-05-13 16:59:00,
2013-05-13 12:04:00,71.1,51.5,29.85,WNW,301,5.0,8.0,50,0.00,,---,0.00,882.00,VWS V14.01,2013-05-13 17:04:00,
2013-05-13 12:09:00,71.6,52.5,29.85,NW,313,9.0,11.0,51,0.00,,---,0.00,896.00,VWS V14.01,2013-05-13 17:09:00,
2013-05-13 12:14:00,72.0,51.8,29.85,SSW,195,6.0,10.0,49,0.00,,---,0.00,933.00,VWS V14.01,2013-05-13 17:14:00,
2013-05-13 12:19:00,72.7,51.9,29.84,SE,131,10.0,12.0,48,0.00,,---,0.00,825.00,VWS V14.01,2013-05-13 17:19:00,
2013-05-13 12:24:00,72.8,52.0,29.84,SE,124,3.0,11.0,48,0.00,,---,0.00,859.00,VWS V14.01,2013-05-13 17:24:00,
2013-05-13 12:29:00,73.2,52.4,29.84,NNW,335,11.0,11.0,48,0.00,,---,0.00,911.00,VWS V14.01,2013-05-13 17:29:00,
2013-05-13 12:34:00,73.5,52.1,29.84,NNW,346,11.0,12.0,47,0.00,,---,0.00,938.00,VWS V14.01,2013-05-13 17:34:00,
2013-05-13 12:39:00,73.7,51.7,29.84,SSW,200,10.0,10.0,46,0.00,,---,0.00,936.00,VWS V14.01,2013-05-13 17:39:00,
2013-05-13 12:44:00,74.2,52.7,29.84,SSW,209,11.0,12.0,47,0.00,,---,0.00,943.00,VWS V14.01,2013-05-13 17:44:00,
2013-05-13 12:50:00,74.2,52.7,29.84,NNW,346,2.0,11.0,47,0.00,,---,0.00,943.00,VWS V14.01,2013-05-13 17:50:00,
2013-05-13 12:55:00,74.9,53.3,29.84,NW,305,6.0,11.0,47,0.00,,---,0.00,769.00,VWS V14.01,2013-05-13 17:55:00,
2013-05-13 13:00:00,75.1,53.5,29.84,SSE,157,10.0,12.0,47,0.00,,---,0.00,880.00,VWS V14.01,2013-05-13 18:00:00,
2013-05-13 13:05:00,74.9,53.3,29.84,West,280,8.0,11.0,47,0.00,,---,0.00,109.00,VWS V14.01,2013-05-13 18:05:00,
2013-05-13 13:10:00,75.3,52.5,29.84,WNW,301,8.0,13.0,45,0.00,,---,0.00,962.00,VWS V14.01,2013-05-13 18:10:00,
2013-05-13 13:15:00,75.4,53.2,29.84,SSE,162,5.0,13.0,46,0.00,,---,0.00,459.00,VWS V14.01,2013-05-13 18:15:00,
2013-05-13 13:20:00,75.6,52.8,29.84,SE,145,10.0,12.0,45,0.00,,---,0.00,843.00,VWS V14.01,2013-05-13 18:20:00,
2013-05-13 13:25:00,76.0,52.5,29.84,North,349,13.0,13.0,44,0.00,,---,0.00,109.00,VWS V14.01,2013-05-13 18:25:00,
2013-05-13 13:30:00,76.3,52.2,29.83,North,0,10.0,14.0,43,0.00,,---,0.00,127.00,VWS V14.01,2013-05-13 18:30:00,
2013-05-13 13:35:00,76.3,52.2,29.83,SW,226,8.0,11.0,43,0.00,,---,0.00,890.00,VWS V14.01,2013-05-13 18:35:00,
2013-05-13 13:40:00,76.5,52.4,29.83,SSE,158,11.0,14.0,43,0.00,,---,0.00,361.00,VWS V14.01,2013-05-13 18:40:00,
2013-05-13 13:45:00,76.8,53.3,29.82,North,0,4.0,14.0,44,0.00,,---,0.00,387.00,VWS V14.01,2013-05-13 18:45:00,
2013-05-13 13:50:00,77.2,53.6,29.82,SW,229,12.0,16.0,44,0.00,,---,0.00,188.00,VWS V14.01,2013-05-13 18:50:00,
2013-05-13 13:55:00,77.2,54.2,29.82,SE,143,7.0,10.0,45,0.00,,---,0.00,808.00,VWS V14.01,2013-05-13 18:55:00,
2013-05-13 14:01:00,77.2,52.4,29.82,WNW,289,6.0,6.0,42,0.00,,---,0.00,852.00,VWS V14.01,2013-05-13 19:01:00,
2013-05-13 14:06:00,77.7,54.1,29.82,WSW,237,16.0,16.0,44,0.00,,---,0.00,970.00,VWS V14.01,2013-05-13 19:06:00,
2013-05-13 14:11:00,77.9,53.0,29.82,NNW,346,10.0,11.0,42,0.00,,---,0.00,700.00,VWS V14.01,2013-05-13 19:11:00,
2013-05-13 14:16:00,78.3,54.6,29.81,North,0,11.0,13.0,44,0.00,,---,0.00,693.00,VWS V14.01,2013-05-13 19:16:00,
2013-05-13 14:21:00,78.6,54.3,29.81,SW,220,7.0,15.0,43,0.00,,---,0.00,825.00,VWS V14.01,2013-05-13 19:21:00,
2013-05-13 14:26:00,78.6,53.6,29.81,SW,227,12.0,14.0,42,0.00,,---,0.00,860.00,VWS V14.01,2013-05-13 19:26:00,
2013-05-13 14:31:00,79.0,54.0,29.81,WNW,292,7.0,11.0,42,0.00,,---,0.00,873.00,VWS V14.01,2013-05-13 19:31:00,
2013-05-13 14:36:00,79.4,55.0,29.81,WSW,237,15.0,15.0,43,0.00,,---,0.00,845.00,VWS V14.01,2013-05-13 19:36:00,
2013-05-13 14:41:00,79.4,55.0,29.81,SE,141,16.0,16.0,43,0.00,,---,0.00,806.00,VWS V14.01,2013-05-13 19:41:00,
2013-05-13 14:46:00,79.8,54.0,29.80,WSW,246,15.0,16.0,41,0.00,,---,0.00,811.00,VWS V14.01,2013-05-13 19:46:00,
2013-05-13 14:51:00,80.3,53.1,29.80,NNW,330,12.0,12.0,39,0.00,,---,0.00,799.00,VWS V14.01,2013-05-13 19:51:00,
2013-05-13 14:56:00,80.5,51.9,29.80,SW,226,11.0,11.0,37,0.00,,---,0.00,728.00,VWS V14.01,2013-05-13 19:56:00,
2013-05-13 15:01:00,80.7,52.8,29.80,SW,234,9.0,14.0,38,0.00,,---,0.00,827.00,VWS V14.01,2013-05-13 20:01:00,
2013-05-13 15:07:00,81.1,51.7,29.80,SSE,150,7.0,11.0,36,0.00,,---,0.00,843.00,VWS V14.01,2013-05-13 20:07:00,
2013-05-13 15:12:00,81.6,54.3,29.80,South,182,8.0,14.0,39,0.00,,---,0.00,748.00,VWS V14.01,2013-05-13 20:12:00,
2013-05-13 15:17:00,81.4,54.8,29.79,SSW,192,10.0,10.0,40,0.00,,---,0.00,676.00,VWS V14.01,2013-05-13 20:17:00,
2013-05-13 15:22:00,81.4,54.1,29.79,WNW,288,7.0,11.0,39,0.00,,---,0.00,873.00,VWS V14.01,2013-05-13 20:22:00,
2013-05-13 15:27:00,82.0,48.4,29.79,SSW,199,8.0,17.0,31,0.00,,---,0.00,862.00,VWS V14.01,2013-05-13 20:27:00,
2013-05-13 15:32:00,82.2,47.7,29.78,South,188,13.0,18.0,30,0.00,,---,0.00,816.00,VWS V14.01,2013-05-13 20:32:00,
2013-05-13 15:37:00,82.4,51.2,29.78,South,172,12.0,17.0,34,0.00,,---,0.00,787.00,VWS V14.01,2013-05-13 20:37:00,
2013-05-13 15:42:00,82.0,52.4,29.78,WNW,294,5.0,12.0,36,0.00,,---,0.00,806.00,VWS V14.01,2013-05-13 20:42:00,
2013-05-13 15:47:00,82.4,52.8,29.78,SW,229,10.0,10.0,36,0.00,,---,0.00,832.00,VWS V14.01,2013-05-13 20:47:00,
2013-05-13 15:52:00,82.6,51.4,29.78,SSW,213,6.0,19.0,34,0.00,,---,0.00,792.00,VWS V14.01,2013-05-13 20:52:00,
2013-05-13 15:57:00,82.6,52.2,29.78,SSW,205,10.0,17.0,35,0.00,,---,0.00,760.00,VWS V14.01,2013-05-13 20:57:00,
2013-05-13 16:02:00,82.6,50.6,29.77,WSW,247,12.0,20.0,33,0.00,,---,0.00,674.00,VWS V14.01,2013-05-13 21:02:00,
2013-05-13 16:08:00,82.6,51.4,29.77,SSW,192,15.0,19.0,34,0.00,,---,0.00,690.00,VWS V14.01,2013-05-13 21:08:00,
2013-05-13 16:13:00,82.6,48.9,29.77,SSW,195,19.0,19.0,31,0.00,,---,0.00,714.00,VWS V14.01,2013-05-13 21:13:00,
2013-05-13 16:18:00,83.0,50.1,29.77,NW,318,10.0,20.0,32,0.00,,---,0.00,670.00,VWS V14.01,2013-05-13 21:18:00,
2013-05-13 16:23:00,83.2,51.1,29.77,SW,215,12.0,18.0,33,0.00,,---,0.00,646.00,VWS V14.01,2013-05-13 21:23:00,
2013-05-13 16:28:00,83.0,52.6,29.77,South,178,11.0,18.0,35,0.00,,---,0.00,655.00,VWS V14.01,2013-05-13 21:28:00,
2013-05-13 16:33:00,83.0,52.6,29.76,South,184,14.0,14.0,35,0.00,,---,0.00,658.00,VWS V14.01,2013-05-13 21:33:00,
2013-05-13 16:38:00,83.0,52.6,29.76,SSW,193,15.0,19.0,35,0.00,,---,0.00,637.00,VWS V14.01,2013-05-13 21:38:00,
2013-05-13 16:43:00,82.8,52.4,29.76,SW,219,11.0,17.0,35,0.00,,---,0.00,584.00,VWS V14.01,2013-05-13 21:43:00,
2013-05-13 16:48:00,83.2,52.7,29.76,South,178,8.0,17.0,35,0.00,,---,0.00,611.00,VWS V14.01,2013-05-13 21:48:00,
2013-05-13 16:53:00,83.2,52.7,29.76,South,186,14.0,17.0,35,0.00,,---,0.00,577.00,VWS V14.01,2013-05-13 21:53:00,
2013-05-13 16:58:00,83.0,51.8,29.76,South,178,10.0,18.0,34,0.00,,---,0.00,588.00,VWS V14.01,2013-05-13 21:58:00,
2013-05-13 17:03:00,83.2,51.1,29.75,SW,230,12.0,17.0,33,0.00,,---,0.00,570.00,VWS V14.01,2013-05-13 22:03:00,
2013-05-13 17:08:00,83.0,52.6,29.75,SSE,162,10.0,18.0,35,0.00,,---,0.00,551.00,VWS V14.01,2013-05-13 22:08:00,
2013-05-13 17:13:00,83.2,53.5,29.75,SSE,168,10.0,18.0,36,0.00,,---,0.00,563.00,VWS V14.01,2013-05-13 22:13:00,
2013-05-13 17:19:00,83.2,52.7,29.75,South,176,16.0,18.0,35,0.00,,---,0.00,544.00,VWS V14.01,2013-05-13 22:19:00,
2013-05-13 17:24:00,83.4,52.1,29.75,SSW,195,11.0,19.0,34,0.00,,---,0.00,538.00,VWS V14.01,2013-05-13 22:24:00,
2013-05-13 17:29:00,83.4,52.1,29.75,SSW,196,13.0,22.0,34,0.00,,---,0.00,465.00,VWS V14.01,2013-05-13 22:29:00,
2013-05-13 17:34:00,83.2,52.7,29.75,SSE,168,13.0,18.0,35,0.00,,---,0.00,452.00,VWS V14.01,2013-05-13 22:34:00,
2013-05-13 17:39:00,83.0,52.6,29.75,South,174,17.0,20.0,35,0.00,,---,0.00,456.00,VWS V14.01,2013-05-13 22:39:00,
2013-05-13 17:44:00,82.8,52.4,29.75,WSW,243,20.0,20.0,35,0.00,,---,0.00,401.00,VWS V14.01,2013-05-13 22:44:00,
2013-05-13 17:49:00,82.8,53.9,29.74,South,172,14.0,19.0,37,0.00,,---,0.00,438.00,VWS V14.01,2013-05-13 22:49:00,
2013-05-13 17:54:00,83.0,52.6,29.74,SSE,165,8.0,18.0,35,0.00,,---,0.00,417.00,VWS V14.01,2013-05-13 22:54:00,
2013-05-13 17:59:00,83.0,52.6,29.74,SSW,209,16.0,20.0,35,0.00,,---,0.00,371.00,VWS V14.01,2013-05-13 22:59:00,
2013-05-13 18:04:00,82.6,52.2,29.74,South,171,15.0,21.0,35,0.00,,---,0.00,345.00,VWS V14.01,2013-05-13 23:04:00,
2013-05-13 18:09:00,82.6,52.2,29.74,SSW,208,13.0,19.0,35,0.00,,---,0.00,340.00,VWS V14.01,2013-05-13 23:09:00,
2013-05-13 18:15:00,82.6,53.0,29.72,WNW,301,12.0,20.0,36,0.00,,---,0.00,366.00,VWS V14.01,2013-05-13 23:15:00,
2013-05-13 18:20:00,82.6,52.2,29.72,SSW,210,17.0,20.0,35,0.00,,---,0.00,333.00,VWS V14.01,2013-05-13 23:20:00,
2013-05-13 18:25:00,82.4,52.0,29.72,South,169,16.0,21.0,35,0.00,,---,0.00,304.00,VWS V14.01,2013-05-13 23:25:00,
2013-05-13 18:30:00,82.4,53.5,29.72,South,179,13.0,20.0,37,0.00,,---,0.00,333.00,VWS V14.01,2013-05-13 23:30:00,
2013-05-13 18:35:00,82.4,53.5,29.72,South,171,11.0,19.0,37,0.00,,---,0.00,326.00,VWS V14.01,2013-05-13 23:35:00,
2013-05-13 18:40:00,82.2,53.4,29.72,SSE,148,11.0,19.0,37,0.00,,---,0.00,283.00,VWS V14.01,2013-05-13 23:40:00,
2013-05-13 18:45:00,82.2,53.4,29.72,SSE,158,6.0,19.0,37,0.00,,---,0.00,297.00,VWS V14.01,2013-05-13 23:45:00,
2013-05-13 18:50:00,82.0,53.2,29.72,SSW,195,13.0,20.0,37,0.00,,---,0.00,246.00,VWS V14.01,2013-05-13 23:50:00,
2013-05-13 18:55:00,81.8,52.3,29.72,WSW,243,16.0,20.0,36,0.00,,---,0.00,238.00,VWS V14.01,2013-05-13 23:55:00,
2013-05-13 19:00:00,81.4,52.7,29.72,South,184,20.0,20.0,37,0.00,,---,0.00,215.00,VWS V14.01,2013-05-14 00:00:00,
2013-05-13 19:05:00,81.2,53.2,29.72,SSE,162,11.0,18.0,38,0.00,,---,0.00,187.00,VWS V14.01,2013-05-14 00:05:00,
2013-05-13 19:10:00,80.9,52.2,29.72,SSW,195,8.0,17.0,37,0.00,,---,0.00,178.00,VWS V14.01,2013-05-14 00:10:00,
2013-05-13 19:15:00,80.7,52.8,29.71,SSW,196,11.0,21.0,38,0.00,,---,0.00,151.00,VWS V14.01,2013-05-14 00:15:00,
2013-05-13 19:20:00,80.3,53.8,29.71,SW,234,13.0,16.0,40,0.00,,---,0.00,116.00,VWS V14.01,2013-05-14 00:20:00,
2013-05-13 19:25:00,79.8,54.0,29.71,South,186,10.0,16.0,41,0.00,,---,0.00,109.00,VWS V14.01,2013-05-14 00:25:00,
2013-05-13 19:30:00,79.4,54.3,29.72,South,188,13.0,17.0,42,0.00,,---,0.00,106.00,VWS V14.01,2013-05-14 00:30:00,
2013-05-13 19:35:00,79.0,55.2,29.72,South,188,12.0,17.0,44,0.00,,---,0.00,83.00,VWS V14.01,2013-05-14 00:35:00,
2013-05-13 19:40:00,78.5,55.4,29.72,South,188,11.0,15.0,45,0.00,,---,0.00,70.00,VWS V14.01,2013-05-14 00:40:00,
2013-05-13 19:45:00,78.1,56.2,29.72,South,186,11.0,14.0,47,0.00,,---,0.00,56.00,VWS V14.01,2013-05-14 00:45:00,
2013-05-13 19:50:00,77.6,56.4,29.72,South,178,12.0,12.0,48,0.00,,---,0.00,49.00,VWS V14.01,2013-05-14 00:50:00,
2013-05-13 19:55:00,77.0,56.4,29.72,SSW,203,9.0,16.0,49,0.00,,---,0.00,49.00,VWS V14.01,2013-05-14 00:55:00,
2013-05-13 20:00:00,76.8,56.8,29.72,South,179,11.0,13.0,50,0.00,,---,0.00,44.00,VWS V14.01,2013-05-14 01:00:00,
2013-05-13 20:06:00,76.3,56.9,29.72,NW,304,10.0,11.0,51,0.00,,---,0.00,33.00,VWS V14.01,2013-05-14 01:06:00,
2013-05-13 20:11:00,75.8,56.9,29.72,SSE,165,7.0,11.0,52,0.00,,---,0.00,23.00,VWS V14.01,2013-05-14 01:11:00,
2013-05-13 20:16:00,75.3,57.0,29.71,South,188,11.0,12.0,53,0.00,,---,0.00,18.00,VWS V14.01,2013-05-14 01:16:00,
2013-05-13 20:21:00,74.7,57.5,29.71,SW,215,9.0,12.0,55,0.00,,---,0.00,16.00,VWS V14.01,2013-05-14 01:21:00,
2013-05-13 20:26:00,74.2,57.0,29.71,SSE,162,8.0,12.0,55,0.00,,---,0.00,0.00,VWS V14.01,2013-05-14 01:26:00,
2013-05-13 20:31:00,73.9,56.7,29.71,West,272,10.0,12.0,55,0.00,,---,0.00,0.00,VWS V14.01,2013-05-14 01:31:00,
2013-05-13 20:36:00,73.5,57.3,29.71,SSW,198,8.0,12.0,57,0.00,,---,0.00,0.00,VWS V14.01,2013-05-14 01:36:00,
2013-05-13 20:41:00,73.0,57.4,29.71,South,189,10.0,10.0,58,0.00,,---,0.00,0.00,VWS V14.01,2013-05-14 01:41:00,
2013-05-13 20:46:00,72.8,57.2,29.71,NW,305,12.0,12.0,58,0.00,,---,0.00,0.00,VWS V14.01,2013-05-14 01:46:00,
2013-05-13 20:51:00,72.7,57.6,29.71,South,189,7.0,11.0,59,0.00,,---,0.00,0.00,VWS V14.01,2013-05-14 01:51:00,
2013-05-13 20:56:00,72.1,57.5,29.71,SSW,196,9.0,10.0,60,0.00,,---,0.00,0.00,VWS V14.01,2013-05-14 01:56:00,
2013-05-13 21:02:00,71.8,57.6,29.71,SSW,200,9.0,10.0,61,0.00,,---,0.00,0.00,VWS V14.01,2013-05-14 02:02:00,
2013-05-13 21:07:00,71.3,57.6,29.71,West,267,8.0,12.0,62,0.00,,---,0.00,0.00,VWS V14.01,2013-05-14 02:07:00,
2013-05-13 21:12:00,71.1,57.9,29.71,SSE,148,11.0,11.0,63,0.00,,---,0.00,0.00,VWS V14.01,2013-05-14 02:12:00,
2013-05-13 21:17:00,70.8,58.0,29.70,WSW,257,11.0,13.0,64,0.00,,---,0.00,0.00,VWS V14.01,2013-05-14 02:17:00,
2013-05-13 21:22:00,70.4,58.1,29.70,SSW,198,12.0,12.0,65,0.00,,---,0.00,0.00,VWS V14.01,2013-05-14 02:22:00,
2013-05-13 21:27:00,70.4,58.1,29.70,SW,226,8.0,14.0,65,0.00,,---,0.00,0.00,VWS V14.01,2013-05-14 02:27:00,
2013-05-13 21:32:00,70.4,58.1,29.70,WNW,287,14.0,16.0,65,0.00,,---,0.00,0.00,VWS V14.01,2013-05-14 02:32:00,
2013-05-13 21:37:00,70.8,58.0,29.70,SSW,196,14.0,14.0,64,0.00,,---,0.00,0.00,VWS V14.01,2013-05-14 02:37:00,
2013-05-13 21:42:00,70.8,58.5,29.70,SSW,193,10.0,14.0,65,0.00,,---,0.00,0.00,VWS V14.01,2013-05-14 02:42:00,
2013-05-13 21:48:00,70.8,58.5,29.70,SSW,202,10.0,16.0,65,0.00,,---,0.00,0.00,VWS V14.01,2013-05-14 02:48:00,
2013-05-13 21:53:00,70.6,58.3,29.70,SSW,196,11.0,16.0,65,0.00,,---,0.00,0.00,VWS V14.01,2013-05-14 02:53:00,
2013-05-13 21:58:00,70.6,58.3,29.70,SSW,193,10.0,13.0,65,0.00,,---,0.00,0.00,VWS V14.01,2013-05-14 02:58:00,
2013-05-13 22:03:00,70.6,58.3,29.70,South,188,12.0,13.0,65,0.00,,---,0.00,0.00,VWS V14.01,2013-05-14 03:03:00,
2013-05-13 22:08:00,70.3,58.0,29.70,SSW,193,13.0,14.0,65,0.00,,---,0.00,0.00,VWS V14.01,2013-05-14 03:08:00,
2013-05-13 22:13:00,70.3,58.0,29.70,SSW,192,11.0,14.0,65,0.00,,---,0.00,0.00,VWS V14.01,2013-05-14 03:13:00,
2013-05-13 22:18:00,70.1,58.2,29.70,WNW,291,15.0,17.0,66,0.00,,---,0.00,0.00,VWS V14.01,2013-05-14 03:18:00,
2013-05-13 22:23:00,69.9,58.0,29.70,SSW,202,13.0,14.0,66,0.00,,---,0.00,0.00,VWS V14.01,2013-05-14 03:23:00,
2013-05-13 22:28:00,69.8,57.9,29.70,WNW,289,11.0,15.0,66,0.00,,---,0.00,0.00,VWS V14.01,2013-05-14 03:28:00,
2013-05-13 22:33:00,69.9,57.6,29.70,SSW,195,12.0,14.0,65,0.00,,---,0.00,0.00,VWS V14.01,2013-05-14 03:33:00,
2013-05-13 22:38:00,69.9,57.6,29.70,WSW,248,14.0,14.0,65,0.00,,---,0.00,0.00,VWS V14.01,2013-05-14 03:38:00,
2013-05-13 22:44:00,69.9,57.6,29.70,South,185,10.0,16.0,65,0.00,,---,0.00,0.00,VWS V14.01,2013-05-14 03:44:00,
2013-05-13 22:49:00,70.1,57.8,29.70,SSW,199,12.0,14.0,65,0.00,,---,0.00,0.00,VWS V14.01,2013-05-14 03:49:00,
2013-05-13 22:54:00,70.3,57.6,29.70,South,189,16.0,17.0,64,0.00,,---,0.00,0.00,VWS V14.01,2013-05-14 03:54:00,
2013-05-13 22:59:00,70.4,57.2,29.70,West,268,15.0,16.0,63,0.00,,---,0.00,0.00,VWS V14.01,2013-05-14 03:59:00,
2013-05-13 23:01:00,70.4,57.2,29.69,SSW,202,11.0,14.0,63,0.00,,---,0.00,0.00,VWS V14.01,2013-05-14 04:01:00,
2013-05-13 23:02:00,70.6,57.4,29.69,SSW,192,13.0,17.0,63,0.00,,---,0.00,0.00,VWS V14.01,2013-05-14 04:02:00,
2013-05-13 23:07:00,70.6,57.0,29.69,South,188,12.0,16.0,62,0.00,,---,0.00,0.00,VWS V14.01,2013-05-14 04:07:00,
2013-05-13 23:13:00,70.8,57.2,29.69,SSW,198,11.0,14.0,62,0.00,,---,0.00,0.00,VWS V14.01,2013-05-14 04:13:00,
2013-05-13 23:18:00,70.6,57.0,29.69,SSW,212,11.0,16.0,62,0.00,,---,0.00,0.00,VWS V14.01,2013-05-14 04:18:00,
2013-05-13 23:23:00,70.4,56.8,29.69,South,188,11.0,14.0,62,0.00,,---,0.00,0.00,VWS V14.01,2013-05-14 04:23:00,
2013-05-13 23:28:00,70.4,56.8,29.69,SSW,198,11.0,13.0,62,0.00,,---,0.00,0.00,VWS V14.01,2013-05-14 04:28:00,
2013-05-13 23:33:00,70.8,56.7,29.69,SSW,195,13.0,18.0,61,0.00,,---,0.00,0.00,VWS V14.01,2013-05-14 04:33:00,
2013-05-13 23:38:00,71.1,56.1,29.69,SSW,198,13.0,19.0,59,0.00,,---,0.00,0.00,VWS V14.01,2013-05-14 04:38:00,
2013-05-13 23:43:00,71.3,56.2,29.69,South,179,12.0,17.0,59,0.00,,---,0.00,0.00,VWS V14.01,2013-05-14 04:43:00,
2013-05-13 23:48:00,71.1,56.5,29.68,South,188,14.0,17.0,60,0.00,,---,0.00,0.00,VWS V14.01,2013-05-14 04:48:00,
2013-05-13 23:53:00,70.9,56.3,29.68,South,188,13.0,17.0,60,0.00,,---,0.00,0.00,VWS V14.01,2013-05-14 04:53:00,
2013-05-13 23:58:00,70.6,56.5,29.68,SW,229,13.0,16.0,61,0.00,,---,0.00,0.00,VWS V14.01,2013-05-14 04:58:00,